sensor_id;sensor_type;location;lat;lon;timestamp;P1;durP1;ratioP1;P2;durP2;ratioP2
18905;SDS011;9585;51.018;4.282;2022-08-03T00:01:01;2.58;;;1.50;;
18905;SDS011;9585;51.018;4.282;2022-08-03T00:03:55;2.63;;;1.50;;
18905;SDS011;9585;51.018;4.282;2022-08-03T00:06:45;2.22;;;1.27;;
18905;SDS011;9585;51.018;4.282;2022-08-03T00:09:24;3.22;;;1.38;;
18905;SDS011;9585;51.018;4.282;2022-08-03T00:12:28;1.90;;;1.23;;
18905;SDS011;9585;51.018;4.282;2022-08-03T00:14:57;3.17;;;1.48;;
18905;SDS011;9585;51.018;4.282;2022-08-03T00:17:25;3.63;;;1.50;;
18905;SDS011;9585;51.018;4.282;2022-08-03T00:20:49;2.63;;;1.33;;
18905;SDS011;9585;51.018;4.282;2022-08-03T00:26:41;2.55;;;1.50;;
18905;SDS011;9585;51.018;4.282;2022-08-03T00:29:11;2.45;;;1.60;;
18905;SDS011;9585;51.018;4.282;2022-08-03T00:31:53;1.58;;;1.33;;
18905;SDS011;9585;51.018;4.282;2022-08-03T00:34:28;2.00;;;1.30;;
18905;SDS011;9585;51.018;4.282;2022-08-03T00:40:47;3.08;;;1.60;;
18905;SDS011;9585;51.018;4.282;2022-08-03T00:43:38;3.28;;;1.70;;
18905;SDS011;9585;51.018;4.282;2022-08-03T00:46:09;2.72;;;1.40;;
18905;SDS011;9585;51.018;4.282;2022-08-03T00:48:43;4.10;;;1.58;;
18905;SDS011;9585;51.018;4.282;2022-08-03T00:51:13;2.70;;;1.40;;
18905;SDS011;9585;51.018;4.282;2022-08-03T00:53:44;2.53;;;1.48;;
18905;SDS011;9585;51.018;4.282;2022-08-03T00:56:12;2.50;;;1.30;;
18905;SDS011;9585;51.018;4.282;2022-08-03T00:58:45;2.88;;;1.40;;
18905;SDS011;9585;51.018;4.282;2022-08-03T01:01:13;2.40;;;1.45;;
18905;SDS011;9585;51.018;4.282;2022-08-03T01:03:50;1.65;;;1.30;;
18905;SDS011;9585;51.018;4.282;2022-08-03T01:06:18;2.25;;;1.15;;
18905;SDS011;9585;51.018;4.282;2022-08-03T01:08:53;3.33;;;1.60;;
18905;SDS011;9585;51.018;4.282;2022-08-03T01:11:44;2.70;;;1.30;;
18905;SDS011;9585;51.018;4.282;2022-08-03T01:14:17;2.63;;;1.30;;
18905;SDS011;9585;51.018;4.282;2022-08-03T01:16:53;1.92;;;1.27;;
18905;SDS011;9585;51.018;4.282;2022-08-03T01:19:34;2.33;;;1.30;;
18905;SDS011;9585;51.018;4.282;2022-08-03T01:22:14;1.77;;;1.20;;
18905;SDS011;9585;51.018;4.282;2022-08-03T01:25:09;1.35;;;1.05;;
18905;SDS011;9585;51.018;4.282;2022-08-03T01:28:01;2.17;;;0.90;;
18905;SDS011;9585;51.018;4.282;2022-08-03T01:31:07;1.80;;;0.90;;
18905;SDS011;9585;51.018;4.282;2022-08-03T01:33:43;1.90;;;1.15;;
18905;SDS011;9585;51.018;4.282;2022-08-03T01:36:30;2.58;;;1.33;;
18905;SDS011;9585;51.018;4.282;2022-08-03T01:39:02;2.10;;;1.23;;
18905;SDS011;9585;51.018;4.282;2022-08-03T01:41:34;2.00;;;1.10;;
18905;SDS011;9585;51.018;4.282;2022-08-03T01:44:09;3.60;;;1.50;;
18905;SDS011;9585;51.018;4.282;2022-08-03T01:46:40;2.85;;;1.30;;
18905;SDS011;9585;51.018;4.282;2022-08-03T01:49:10;1.67;;;1.20;;
18905;SDS011;9585;51.018;4.282;2022-08-03T01:51:43;3.10;;;1.40;;
18905;SDS011;9585;51.018;4.282;2022-08-03T01:54:20;3.80;;;1.42;;
18905;SDS011;9585;51.018;4.282;2022-08-03T01:57:21;1.60;;;1.10;;
18905;SDS011;9585;51.018;4.282;2022-08-03T02:00:03;3.63;;;1.35;;
18905;SDS011;9585;51.018;4.282;2022-08-03T02:02:36;5.68;;;1.50;;
18905;SDS011;9585;51.018;4.282;2022-08-03T02:05:30;2.85;;;1.38;;
18905;SDS011;9585;51.018;4.282;2022-08-03T02:08:01;3.03;;;1.33;;
18905;SDS011;9585;51.018;4.282;2022-08-03T02:10:36;2.60;;;1.20;;
18905;SDS011;9585;51.018;4.282;2022-08-03T02:13:14;3.20;;;1.10;;
18905;SDS011;9585;51.018;4.282;2022-08-03T02:15:52;3.42;;;1.30;;
18905;SDS011;9585;51.018;4.282;2022-08-03T02:18:28;3.00;;;1.30;;
18905;SDS011;9585;51.018;4.282;2022-08-03T02:21:15;2.78;;;1.08;;
18905;SDS011;9585;51.018;4.282;2022-08-03T02:24:25;1.98;;;1.20;;
18905;SDS011;9585;51.018;4.282;2022-08-03T02:26:54;1.65;;;1.00;;
18905;SDS011;9585;51.018;4.282;2022-08-03T02:29:23;2.90;;;1.30;;
18905;SDS011;9585;51.018;4.282;2022-08-03T02:31:53;1.85;;;1.30;;
18905;SDS011;9585;51.018;4.282;2022-08-03T02:34:27;2.50;;;1.27;;
18905;SDS011;9585;51.018;4.282;2022-08-03T02:36:57;2.05;;;1.13;;
18905;SDS011;9585;51.018;4.282;2022-08-03T02:39:27;1.58;;;1.02;;
18905;SDS011;9585;51.018;4.282;2022-08-03T02:41:57;3.17;;;1.23;;
18905;SDS011;9585;51.018;4.282;2022-08-03T02:44:28;1.63;;;0.88;;
18905;SDS011;9585;51.018;4.282;2022-08-03T02:46:59;3.03;;;1.45;;
18905;SDS011;9585;51.018;4.282;2022-08-03T02:49:32;2.40;;;1.02;;
18905;SDS011;9585;51.018;4.282;2022-08-03T02:52:00;3.78;;;1.38;;
18905;SDS011;9585;51.018;4.282;2022-08-03T02:54:30;2.50;;;1.15;;
18905;SDS011;9585;51.018;4.282;2022-08-03T02:57:00;1.52;;;1.15;;
18905;SDS011;9585;51.018;4.282;2022-08-03T02:59:27;2.65;;;1.30;;
18905;SDS011;9585;51.018;4.282;2022-08-03T03:01:57;1.88;;;1.30;;
18905;SDS011;9585;51.018;4.282;2022-08-03T03:04:27;3.08;;;1.58;;
18905;SDS011;9585;51.018;4.282;2022-08-03T03:06:57;2.75;;;1.33;;
18905;SDS011;9585;51.018;4.282;2022-08-03T03:09:26;2.28;;;1.30;;
18905;SDS011;9585;51.018;4.282;2022-08-03T03:11:54;1.83;;;1.50;;
18905;SDS011;9585;51.018;4.282;2022-08-03T03:14:23;3.38;;;1.20;;
18905;SDS011;9585;51.018;4.282;2022-08-03T03:16:51;4.15;;;1.40;;
18905;SDS011;9585;51.018;4.282;2022-08-03T03:19:20;3.35;;;1.40;;
18905;SDS011;9585;51.018;4.282;2022-08-03T03:21:48;3.85;;;1.55;;
18905;SDS011;9585;51.018;4.282;2022-08-03T03:24:18;2.83;;;1.30;;
18905;SDS011;9585;51.018;4.282;2022-08-03T03:26:46;2.10;;;1.20;;
18905;SDS011;9585;51.018;4.282;2022-08-03T03:29:14;2.00;;;1.17;;
18905;SDS011;9585;51.018;4.282;2022-08-03T03:32:08;1.65;;;1.08;;
18905;SDS011;9585;51.018;4.282;2022-08-03T03:34:36;2.72;;;1.38;;
18905;SDS011;9585;51.018;4.282;2022-08-03T03:37:04;3.58;;;1.17;;
18905;SDS011;9585;51.018;4.282;2022-08-03T03:39:33;4.13;;;1.35;;
18905;SDS011;9585;51.018;4.282;2022-08-03T03:42:01;2.42;;;1.65;;
18905;SDS011;9585;51.018;4.282;2022-08-03T03:44:32;2.35;;;1.30;;
18905;SDS011;9585;51.018;4.282;2022-08-03T03:47:00;2.95;;;1.10;;
18905;SDS011;9585;51.018;4.282;2022-08-03T03:49:29;2.22;;;1.23;;
18905;SDS011;9585;51.018;4.282;2022-08-03T03:51:57;4.97;;;1.33;;
18905;SDS011;9585;51.018;4.282;2022-08-03T03:54:27;3.13;;;1.20;;
18905;SDS011;9585;51.018;4.282;2022-08-03T03:57:10;2.35;;;1.20;;
18905;SDS011;9585;51.018;4.282;2022-08-03T04:02:46;3.60;;;1.23;;
18905;SDS011;9585;51.018;4.282;2022-08-03T04:05:22;1.98;;;1.27;;
18905;SDS011;9585;51.018;4.282;2022-08-03T04:08:22;2.70;;;1.17;;
18905;SDS011;9585;51.018;4.282;2022-08-03T04:11:10;2.97;;;1.30;;
18905;SDS011;9585;51.018;4.282;2022-08-03T04:13:46;4.80;;;1.33;;
18905;SDS011;9585;51.018;4.282;2022-08-03T04:16:17;3.83;;;1.40;;
18905;SDS011;9585;51.018;4.282;2022-08-03T04:18:53;9.55;;;5.65;;
18905;SDS011;9585;51.018;4.282;2022-08-03T04:21:27;7.50;;;5.07;;
18905;SDS011;9585;51.018;4.282;2022-08-03T04:23:58;11.35;;;7.40;;
18905;SDS011;9585;51.018;4.282;2022-08-03T04:26:35;10.95;;;6.75;;
18905;SDS011;9585;51.018;4.282;2022-08-03T04:29:08;6.40;;;4.40;;
18905;SDS011;9585;51.018;4.282;2022-08-03T04:31:37;5.28;;;2.80;;
18905;SDS011;9585;51.018;4.282;2022-08-03T04:34:09;4.53;;;2.33;;
18905;SDS011;9585;51.018;4.282;2022-08-03T04:36:52;3.45;;;1.80;;
18905;SDS011;9585;51.018;4.282;2022-08-03T04:39:25;3.65;;;1.70;;
18905;SDS011;9585;51.018;4.282;2022-08-03T04:48:28;2.28;;;1.45;;
18905;SDS011;9585;51.018;4.282;2022-08-03T04:51:01;3.20;;;1.25;;
18905;SDS011;9585;51.018;4.282;2022-08-03T04:53:45;3.42;;;1.35;;
18905;SDS011;9585;51.018;4.282;2022-08-03T04:56:13;1.83;;;0.90;;
18905;SDS011;9585;51.018;4.282;2022-08-03T04:59:00;2.65;;;1.20;;
18905;SDS011;9585;51.018;4.282;2022-08-03T05:01:49;2.10;;;1.15;;
18905;SDS011;9585;51.018;4.282;2022-08-03T05:04:17;2.08;;;1.00;;
18905;SDS011;9585;51.018;4.282;2022-08-03T05:06:58;1.73;;;1.10;;
18905;SDS011;9585;51.018;4.282;2022-08-03T05:09:59;2.25;;;1.25;;
18905;SDS011;9585;51.018;4.282;2022-08-03T05:12:46;2.38;;;1.00;;
18905;SDS011;9585;51.018;4.282;2022-08-03T05:15:27;2.30;;;1.00;;
18905;SDS011;9585;51.018;4.282;2022-08-03T05:18:11;3.08;;;1.20;;
18905;SDS011;9585;51.018;4.282;2022-08-03T05:20:45;4.35;;;1.30;;
18905;SDS011;9585;51.018;4.282;2022-08-03T05:23:49;3.10;;;1.15;;
18905;SDS011;9585;51.018;4.282;2022-08-03T05:27:08;2.38;;;1.40;;
18905;SDS011;9585;51.018;4.282;2022-08-03T05:36:27;4.88;;;1.20;;
18905;SDS011;9585;51.018;4.282;2022-08-03T05:39:00;4.40;;;1.00;;
18905;SDS011;9585;51.018;4.282;2022-08-03T05:49:09;3.92;;;1.17;;
18905;SDS011;9585;51.018;4.282;2022-08-03T05:51:41;4.15;;;1.30;;
18905;SDS011;9585;51.018;4.282;2022-08-03T05:54:20;3.28;;;0.77;;
18905;SDS011;9585;51.018;4.282;2022-08-03T05:56:50;3.45;;;1.02;;
18905;SDS011;9585;51.018;4.282;2022-08-03T05:59:24;4.28;;;1.30;;
18905;SDS011;9585;51.018;4.282;2022-08-03T06:04:47;4.00;;;1.00;;
18905;SDS011;9585;51.018;4.282;2022-08-03T06:07:20;2.42;;;0.98;;
18905;SDS011;9585;51.018;4.282;2022-08-03T06:09:50;2.30;;;0.80;;
18905;SDS011;9585;51.018;4.282;2022-08-03T06:12:32;2.88;;;1.00;;
18905;SDS011;9585;51.018;4.282;2022-08-03T06:15:04;4.13;;;1.23;;
18905;SDS011;9585;51.018;4.282;2022-08-03T06:17:49;3.80;;;1.23;;
18905;SDS011;9585;51.018;4.282;2022-08-03T06:21:03;2.80;;;0.85;;
18905;SDS011;9585;51.018;4.282;2022-08-03T06:23:45;4.10;;;1.25;;
18905;SDS011;9585;51.018;4.282;2022-08-03T06:26:16;4.53;;;1.20;;
18905;SDS011;9585;51.018;4.282;2022-08-03T06:28:44;4.32;;;1.10;;
18905;SDS011;9585;51.018;4.282;2022-08-03T06:31:20;3.05;;;1.02;;
18905;SDS011;9585;51.018;4.282;2022-08-03T06:33:53;3.67;;;1.20;;
18905;SDS011;9585;51.018;4.282;2022-08-03T06:36:23;3.45;;;0.93;;
18905;SDS011;9585;51.018;4.282;2022-08-03T06:38:55;3.80;;;1.38;;
18905;SDS011;9585;51.018;4.282;2022-08-03T06:41:30;3.63;;;0.88;;
18905;SDS011;9585;51.018;4.282;2022-08-03T06:43:59;5.78;;;1.30;;
18905;SDS011;9585;51.018;4.282;2022-08-03T06:46:29;3.38;;;1.35;;
18905;SDS011;9585;51.018;4.282;2022-08-03T06:49:06;3.85;;;1.17;;
18905;SDS011;9585;51.018;4.282;2022-08-03T06:51:36;4.50;;;1.00;;
18905;SDS011;9585;51.018;4.282;2022-08-03T06:54:12;4.13;;;1.10;;
18905;SDS011;9585;51.018;4.282;2022-08-03T06:56:49;3.95;;;1.17;;
18905;SDS011;9585;51.018;4.282;2022-08-03T06:59:18;2.40;;;1.08;;
18905;SDS011;9585;51.018;4.282;2022-08-03T07:01:47;3.67;;;0.90;;
18905;SDS011;9585;51.018;4.282;2022-08-03T07:04:15;4.50;;;1.27;;
18905;SDS011;9585;51.018;4.282;2022-08-03T07:06:44;4.03;;;1.13;;
18905;SDS011;9585;51.018;4.282;2022-08-03T07:09:18;2.75;;;1.15;;
18905;SDS011;9585;51.018;4.282;2022-08-03T07:11:52;4.82;;;1.20;;
18905;SDS011;9585;51.018;4.282;2022-08-03T07:14:22;1.75;;;0.82;;
18905;SDS011;9585;51.018;4.282;2022-08-03T07:16:52;4.22;;;1.23;;
18905;SDS011;9585;51.018;4.282;2022-08-03T07:19:19;2.58;;;1.10;;
18905;SDS011;9585;51.018;4.282;2022-08-03T07:21:51;3.30;;;0.95;;
18905;SDS011;9585;51.018;4.282;2022-08-03T07:24:19;4.32;;;1.10;;
18905;SDS011;9585;51.018;4.282;2022-08-03T07:26:46;3.85;;;1.10;;
18905;SDS011;9585;51.018;4.282;2022-08-03T07:29:14;5.70;;;1.10;;
18905;SDS011;9585;51.018;4.282;2022-08-03T07:31:41;3.97;;;1.10;;
18905;SDS011;9585;51.018;4.282;2022-08-03T07:34:20;4.22;;;1.17;;
18905;SDS011;9585;51.018;4.282;2022-08-03T07:36:56;3.22;;;1.15;;
18905;SDS011;9585;51.018;4.282;2022-08-03T07:39:24;4.03;;;1.02;;
18905;SDS011;9585;51.018;4.282;2022-08-03T07:41:56;4.85;;;1.27;;
18905;SDS011;9585;51.018;4.282;2022-08-03T07:44:30;5.85;;;1.13;;
18905;SDS011;9585;51.018;4.282;2022-08-03T07:47:06;4.95;;;1.30;;
18905;SDS011;9585;51.018;4.282;2022-08-03T07:49:39;5.13;;;1.25;;
18905;SDS011;9585;51.018;4.282;2022-08-03T07:52:16;5.65;;;1.20;;
18905;SDS011;9585;51.018;4.282;2022-08-03T07:55:12;4.45;;;1.20;;
18905;SDS011;9585;51.018;4.282;2022-08-03T07:57:58;4.60;;;1.20;;
18905;SDS011;9585;51.018;4.282;2022-08-03T08:00:34;5.43;;;1.23;;
18905;SDS011;9585;51.018;4.282;2022-08-03T08:11:43;4.47;;;1.30;;
18905;SDS011;9585;51.018;4.282;2022-08-03T08:14:20;5.05;;;1.23;;
18905;SDS011;9585;51.018;4.282;2022-08-03T08:17:09;4.32;;;1.20;;
18905;SDS011;9585;51.018;4.282;2022-08-03T08:20:20;3.42;;;1.48;;
18905;SDS011;9585;51.018;4.282;2022-08-03T08:26:12;4.15;;;1.13;;
18905;SDS011;9585;51.018;4.282;2022-08-03T08:29:02;6.85;;;1.45;;
18905;SDS011;9585;51.018;4.282;2022-08-03T08:32:17;5.70;;;1.48;;
18905;SDS011;9585;51.018;4.282;2022-08-03T08:34:45;4.65;;;1.17;;
18905;SDS011;9585;51.018;4.282;2022-08-03T08:37:18;7.55;;;1.40;;
18905;SDS011;9585;51.018;4.282;2022-08-03T08:39:56;7.28;;;1.50;;
18905;SDS011;9585;51.018;4.282;2022-08-03T08:42:38;6.03;;;1.80;;
18905;SDS011;9585;51.018;4.282;2022-08-03T08:45:11;4.75;;;1.33;;
18905;SDS011;9585;51.018;4.282;2022-08-03T08:47:44;6.30;;;1.42;;
18905;SDS011;9585;51.018;4.282;2022-08-03T08:50:20;7.05;;;1.83;;
18905;SDS011;9585;51.018;4.282;2022-08-03T08:52:59;6.35;;;1.60;;
18905;SDS011;9585;51.018;4.282;2022-08-03T08:55:42;5.97;;;1.50;;
18905;SDS011;9585;51.018;4.282;2022-08-03T09:05:04;6.80;;;1.70;;
18905;SDS011;9585;51.018;4.282;2022-08-03T09:07:32;6.82;;;1.48;;
18905;SDS011;9585;51.018;4.282;2022-08-03T09:10:04;7.70;;;1.60;;
18905;SDS011;9585;51.018;4.282;2022-08-03T09:12:51;6.72;;;1.40;;
18905;SDS011;9585;51.018;4.282;2022-08-03T09:15:38;7.35;;;1.83;;
18905;SDS011;9585;51.018;4.282;2022-08-03T09:18:27;5.97;;;1.27;;
18905;SDS011;9585;51.018;4.282;2022-08-03T09:27:26;5.43;;;1.30;;
18905;SDS011;9585;51.018;4.282;2022-08-03T09:30:42;5.05;;;1.33;;
18905;SDS011;9585;51.018;4.282;2022-08-03T09:33:24;5.68;;;1.20;;
18905;SDS011;9585;51.018;4.282;2022-08-03T09:36:12;4.05;;;1.30;;
18905;SDS011;9585;51.018;4.282;2022-08-03T09:39:06;3.28;;;1.20;;
18905;SDS011;9585;51.018;4.282;2022-08-03T09:41:38;7.30;;;1.40;;
18905;SDS011;9585;51.018;4.282;2022-08-03T09:44:08;4.38;;;1.27;;
18905;SDS011;9585;51.018;4.282;2022-08-03T09:46:57;5.38;;;1.20;;
18905;SDS011;9585;51.018;4.282;2022-08-03T09:49:25;4.93;;;1.27;;
18905;SDS011;9585;51.018;4.282;2022-08-03T09:51:56;3.35;;;1.10;;
18905;SDS011;9585;51.018;4.282;2022-08-03T09:54:29;5.25;;;1.27;;
18905;SDS011;9585;51.018;4.282;2022-08-03T09:57:00;4.45;;;1.23;;
18905;SDS011;9585;51.018;4.282;2022-08-03T09:59:44;4.15;;;0.95;;
18905;SDS011;9585;51.018;4.282;2022-08-03T10:02:21;4.60;;;1.17;;
18905;SDS011;9585;51.018;4.282;2022-08-03T10:04:53;4.63;;;1.15;;
18905;SDS011;9585;51.018;4.282;2022-08-03T10:07:23;6.82;;;1.20;;
18905;SDS011;9585;51.018;4.282;2022-08-03T10:10:08;3.65;;;1.02;;
18905;SDS011;9585;51.018;4.282;2022-08-03T10:12:36;3.90;;;1.10;;
18905;SDS011;9585;51.018;4.282;2022-08-03T10:15:06;3.42;;;1.00;;
18905;SDS011;9585;51.018;4.282;2022-08-03T10:20:58;4.57;;;1.20;;
18905;SDS011;9585;51.018;4.282;2022-08-03T10:23:31;5.57;;;1.33;;
18905;SDS011;9585;51.018;4.282;2022-08-03T10:26:03;3.65;;;1.15;;
18905;SDS011;9585;51.018;4.282;2022-08-03T10:29:16;4.30;;;1.42;;
18905;SDS011;9585;51.018;4.282;2022-08-03T10:32:21;3.08;;;1.10;;
18905;SDS011;9585;51.018;4.282;2022-08-03T10:37:56;4.93;;;0.93;;
18905;SDS011;9585;51.018;4.282;2022-08-03T10:40:35;2.33;;;1.02;;
18905;SDS011;9585;51.018;4.282;2022-08-03T10:43:26;4.13;;;1.15;;
18905;SDS011;9585;51.018;4.282;2022-08-03T10:46:00;3.05;;;1.23;;
18905;SDS011;9585;51.018;4.282;2022-08-03T10:48:42;3.85;;;1.20;;
18905;SDS011;9585;51.018;4.282;2022-08-03T10:51:34;2.67;;;1.13;;
18905;SDS011;9585;51.018;4.282;2022-08-03T10:54:20;3.13;;;1.15;;
18905;SDS011;9585;51.018;4.282;2022-08-03T11:00:13;4.35;;;1.00;;
18905;SDS011;9585;51.018;4.282;2022-08-03T11:05:34;2.05;;;1.02;;
18905;SDS011;9585;51.018;4.282;2022-08-03T11:08:29;2.47;;;1.10;;
18905;SDS011;9585;51.018;4.282;2022-08-03T11:11:00;3.55;;;0.98;;
18905;SDS011;9585;51.018;4.282;2022-08-03T11:13:29;2.03;;;0.93;;
18905;SDS011;9585;51.018;4.282;2022-08-03T11:16:02;2.22;;;0.98;;
18905;SDS011;9585;51.018;4.282;2022-08-03T11:18:56;2.03;;;1.00;;
18905;SDS011;9585;51.018;4.282;2022-08-03T11:27:31;3.15;;;1.05;;
18905;SDS011;9585;51.018;4.282;2022-08-03T11:30:08;4.15;;;1.02;;
18905;SDS011;9585;51.018;4.282;2022-08-03T11:33:33;2.83;;;1.00;;
18905;SDS011;9585;51.018;4.282;2022-08-03T11:36:01;2.78;;;1.10;;
18905;SDS011;9585;51.018;4.282;2022-08-03T11:38:30;5.93;;;1.02;;
18905;SDS011;9585;51.018;4.282;2022-08-03T11:41:10;3.42;;;0.90;;
18905;SDS011;9585;51.018;4.282;2022-08-03T11:44:05;2.40;;;0.90;;
18905;SDS011;9585;51.018;4.282;2022-08-03T11:46:37;2.67;;;0.80;;
18905;SDS011;9585;51.018;4.282;2022-08-03T11:49:07;3.65;;;0.75;;
18905;SDS011;9585;51.018;4.282;2022-08-03T11:51:40;2.50;;;0.70;;
18905;SDS011;9585;51.018;4.282;2022-08-03T11:54:10;3.03;;;0.80;;
18905;SDS011;9585;51.018;4.282;2022-08-03T11:56:46;3.65;;;0.80;;
18905;SDS011;9585;51.018;4.282;2022-08-03T11:59:32;3.05;;;0.75;;
18905;SDS011;9585;51.018;4.282;2022-08-03T12:02:20;1.58;;;0.60;;
18905;SDS011;9585;51.018;4.282;2022-08-03T12:05:05;3.33;;;0.85;;
18905;SDS011;9585;51.018;4.282;2022-08-03T12:07:47;3.53;;;0.70;;
18905;SDS011;9585;51.018;4.282;2022-08-03T12:10:23;1.05;;;0.70;;
18905;SDS011;9585;51.018;4.282;2022-08-03T12:12:54;2.30;;;0.80;;
18905;SDS011;9585;51.018;4.282;2022-08-03T12:15:30;1.98;;;0.70;;
18905;SDS011;9585;51.018;4.282;2022-08-03T12:18:01;1.55;;;0.60;;
18905;SDS011;9585;51.018;4.282;2022-08-03T12:20:32;1.30;;;0.50;;
18905;SDS011;9585;51.018;4.282;2022-08-03T12:23:03;2.13;;;0.70;;
18905;SDS011;9585;51.018;4.282;2022-08-03T12:25:33;1.65;;;0.50;;
18905;SDS011;9585;51.018;4.282;2022-08-03T12:28:06;0.88;;;0.60;;
18905;SDS011;9585;51.018;4.282;2022-08-03T12:30:43;2.65;;;0.60;;
18905;SDS011;9585;51.018;4.282;2022-08-03T12:33:17;2.28;;;0.80;;
18905;SDS011;9585;51.018;4.282;2022-08-03T12:36:02;3.45;;;0.63;;
18905;SDS011;9585;51.018;4.282;2022-08-03T12:38:37;2.85;;;0.60;;
18905;SDS011;9585;51.018;4.282;2022-08-03T12:41:28;2.42;;;0.60;;
18905;SDS011;9585;51.018;4.282;2022-08-03T12:44:00;1.98;;;0.60;;
18905;SDS011;9585;51.018;4.282;2022-08-03T12:46:32;2.40;;;0.85;;
18905;SDS011;9585;51.018;4.282;2022-08-03T12:49:06;1.35;;;0.57;;
18905;SDS011;9585;51.018;4.282;2022-08-03T12:54:37;1.48;;;0.65;;
18905;SDS011;9585;51.018;4.282;2022-08-03T12:57:15;2.80;;;0.80;;
18905;SDS011;9585;51.018;4.282;2022-08-03T12:59:43;3.25;;;0.98;;
18905;SDS011;9585;51.018;4.282;2022-08-03T13:02:13;1.45;;;0.60;;
18905;SDS011;9585;51.018;4.282;2022-08-03T13:04:45;1.02;;;0.60;;
18905;SDS011;9585;51.018;4.282;2022-08-03T13:07:28;1.80;;;0.68;;
18905;SDS011;9585;51.018;4.282;2022-08-03T13:10:26;1.65;;;0.70;;
18905;SDS011;9585;51.018;4.282;2022-08-03T13:12:55;1.83;;;0.52;;
18905;SDS011;9585;51.018;4.282;2022-08-03T13:15:29;2.30;;;0.57;;
18905;SDS011;9585;51.018;4.282;2022-08-03T13:17:57;2.80;;;0.73;;
18905;SDS011;9585;51.018;4.282;2022-08-03T13:20:36;2.50;;;0.60;;
18905;SDS011;9585;51.018;4.282;2022-08-03T13:23:05;1.77;;;0.70;;
18905;SDS011;9585;51.018;4.282;2022-08-03T13:25:37;1.17;;;0.68;;
18905;SDS011;9585;51.018;4.282;2022-08-03T13:28:25;1.42;;;0.85;;
18905;SDS011;9585;51.018;4.282;2022-08-03T13:31:09;2.08;;;0.60;;
18905;SDS011;9585;51.018;4.282;2022-08-03T13:33:36;1.77;;;0.70;;
18905;SDS011;9585;51.018;4.282;2022-08-03T13:36:07;1.35;;;0.73;;
18905;SDS011;9585;51.018;4.282;2022-08-03T13:38:38;4.72;;;0.82;;
18905;SDS011;9585;51.018;4.282;2022-08-03T13:41:06;1.67;;;0.70;;
18905;SDS011;9585;51.018;4.282;2022-08-03T13:43:34;1.60;;;0.65;;
18905;SDS011;9585;51.018;4.282;2022-08-03T13:46:02;1.65;;;0.75;;
18905;SDS011;9585;51.018;4.282;2022-08-03T13:48:34;1.15;;;0.50;;
18905;SDS011;9585;51.018;4.282;2022-08-03T13:51:02;1.75;;;0.80;;
18905;SDS011;9585;51.018;4.282;2022-08-03T13:53:33;1.77;;;0.70;;
18905;SDS011;9585;51.018;4.282;2022-08-03T13:56:06;1.55;;;0.70;;
18905;SDS011;9585;51.018;4.282;2022-08-03T13:58:39;1.33;;;0.52;;
18905;SDS011;9585;51.018;4.282;2022-08-03T14:01:09;1.67;;;0.60;;
18905;SDS011;9585;51.018;4.282;2022-08-03T14:03:52;1.63;;;0.80;;
18905;SDS011;9585;51.018;4.282;2022-08-03T14:06:37;1.58;;;0.65;;
18905;SDS011;9585;51.018;4.282;2022-08-03T14:09:11;1.67;;;0.60;;
18905;SDS011;9585;51.018;4.282;2022-08-03T14:11:56;1.08;;;0.57;;
18905;SDS011;9585;51.018;4.282;2022-08-03T14:17:50;1.70;;;0.60;;
18905;SDS011;9585;51.018;4.282;2022-08-03T14:20:21;1.90;;;0.60;;
18905;SDS011;9585;51.018;4.282;2022-08-03T14:22:48;1.60;;;0.60;;
18905;SDS011;9585;51.018;4.282;2022-08-03T14:25:19;0.90;;;0.60;;
18905;SDS011;9585;51.018;4.282;2022-08-03T14:27:48;1.05;;;0.45;;
18905;SDS011;9585;51.018;4.282;2022-08-03T14:30:19;1.05;;;0.80;;
18905;SDS011;9585;51.018;4.282;2022-08-03T14:36:37;1.92;;;0.70;;
18905;SDS011;9585;51.018;4.282;2022-08-03T14:39:45;1.85;;;0.82;;
18905;SDS011;9585;51.018;4.282;2022-08-03T14:42:16;1.48;;;0.80;;
18905;SDS011;9585;51.018;4.282;2022-08-03T14:45:21;1.65;;;0.70;;
18905;SDS011;9585;51.018;4.282;2022-08-03T14:47:54;3.05;;;0.85;;
18905;SDS011;9585;51.018;4.282;2022-08-03T14:50:29;1.67;;;0.80;;
18905;SDS011;9585;51.018;4.282;2022-08-03T14:52:58;2.08;;;0.98;;
18905;SDS011;9585;51.018;4.282;2022-08-03T15:01:10;1.42;;;0.82;;
18905;SDS011;9585;51.018;4.282;2022-08-03T15:03:41;2.25;;;0.80;;
18905;SDS011;9585;51.018;4.282;2022-08-03T15:06:14;1.73;;;0.60;;
18905;SDS011;9585;51.018;4.282;2022-08-03T15:08:57;2.15;;;0.70;;
18905;SDS011;9585;51.018;4.282;2022-08-03T15:11:32;1.42;;;0.65;;
18905;SDS011;9585;51.018;4.282;2022-08-03T15:14:04;2.53;;;0.70;;
18905;SDS011;9585;51.018;4.282;2022-08-03T15:16:55;2.05;;;0.68;;
18905;SDS011;9585;51.018;4.282;2022-08-03T15:19:31;3.08;;;0.80;;
18905;SDS011;9585;51.018;4.282;2022-08-03T15:22:37;2.83;;;0.80;;
18905;SDS011;9585;51.018;4.282;2022-08-03T15:25:25;1.33;;;0.60;;
18905;SDS011;9585;51.018;4.282;2022-08-03T15:27:58;1.38;;;0.70;;
18905;SDS011;9585;51.018;4.282;2022-08-03T15:30:46;2.13;;;0.70;;
18905;SDS011;9585;51.018;4.282;2022-08-03T15:36:14;2.33;;;0.80;;
18905;SDS011;9585;51.018;4.282;2022-08-03T15:39:04;1.42;;;0.70;;
18905;SDS011;9585;51.018;4.282;2022-08-03T15:45:04;2.13;;;0.88;;
18905;SDS011;9585;51.018;4.282;2022-08-03T15:48:12;1.05;;;0.65;;
18905;SDS011;9585;51.018;4.282;2022-08-03T15:51:26;2.50;;;0.57;;
18905;SDS011;9585;51.018;4.282;2022-08-03T15:53:55;1.10;;;0.80;;
18905;SDS011;9585;51.018;4.282;2022-08-03T15:56:26;2.60;;;0.80;;
18905;SDS011;9585;51.018;4.282;2022-08-03T15:59:24;2.90;;;0.80;;
18905;SDS011;9585;51.018;4.282;2022-08-03T16:01:55;1.17;;;0.70;;
18905;SDS011;9585;51.018;4.282;2022-08-03T16:04:39;2.42;;;1.00;;
18905;SDS011;9585;51.018;4.282;2022-08-03T16:07:24;2.05;;;0.77;;
18905;SDS011;9585;51.018;4.282;2022-08-03T16:10:05;1.30;;;0.70;;
18905;SDS011;9585;51.018;4.282;2022-08-03T16:12:34;1.10;;;0.70;;
18905;SDS011;9585;51.018;4.282;2022-08-03T16:15:13;1.40;;;0.70;;
18905;SDS011;9585;51.018;4.282;2022-08-03T16:18:21;1.33;;;0.80;;
18905;SDS011;9585;51.018;4.282;2022-08-03T16:21:13;3.03;;;0.80;;
18905;SDS011;9585;51.018;4.282;2022-08-03T16:26:57;1.55;;;0.70;;
18905;SDS011;9585;51.018;4.282;2022-08-03T16:33:03;1.13;;;0.80;;
18905;SDS011;9585;51.018;4.282;2022-08-03T16:36:11;1.05;;;0.60;;
18905;SDS011;9585;51.018;4.282;2022-08-03T16:39:07;1.15;;;0.60;;
18905;SDS011;9585;51.018;4.282;2022-08-03T16:45:32;1.45;;;0.73;;
18905;SDS011;9585;51.018;4.282;2022-08-03T16:51:09;2.22;;;0.88;;
18905;SDS011;9585;51.018;4.282;2022-08-03T16:53:36;1.60;;;0.70;;
18905;SDS011;9585;51.018;4.282;2022-08-03T16:56:10;2.05;;;0.70;;
18905;SDS011;9585;51.018;4.282;2022-08-03T16:59:02;1.20;;;0.80;;
18905;SDS011;9585;51.018;4.282;2022-08-03T17:01:34;1.23;;;0.68;;
18905;SDS011;9585;51.018;4.282;2022-08-03T17:04:15;1.80;;;0.80;;
18905;SDS011;9585;51.018;4.282;2022-08-03T17:06:46;0.90;;;0.80;;
18905;SDS011;9585;51.018;4.282;2022-08-03T17:09:23;1.27;;;0.80;;
18905;SDS011;9585;51.018;4.282;2022-08-03T17:11:50;0.88;;;0.60;;
18905;SDS011;9585;51.018;4.282;2022-08-03T17:14:26;1.25;;;0.65;;
18905;SDS011;9585;51.018;4.282;2022-08-03T17:17:12;0.75;;;0.60;;
18905;SDS011;9585;51.018;4.282;2022-08-03T17:19:59;0.95;;;0.70;;
18905;SDS011;9585;51.018;4.282;2022-08-03T17:25:26;0.70;;;0.60;;
18905;SDS011;9585;51.018;4.282;2022-08-03T17:28:00;2.20;;;0.80;;
18905;SDS011;9585;51.018;4.282;2022-08-03T17:33:56;2.78;;;0.90;;
18905;SDS011;9585;51.018;4.282;2022-08-03T17:36:40;2.33;;;0.90;;
18905;SDS011;9585;51.018;4.282;2022-08-03T17:39:16;1.95;;;0.90;;
18905;SDS011;9585;51.018;4.282;2022-08-03T17:41:50;1.27;;;0.70;;
18905;SDS011;9585;51.018;4.282;2022-08-03T17:44:19;1.38;;;0.75;;
18905;SDS011;9585;51.018;4.282;2022-08-03T17:53:34;1.20;;;0.70;;
18905;SDS011;9585;51.018;4.282;2022-08-03T18:39:41;3.58;;;1.50;;
18905;SDS011;9585;51.018;4.282;2022-08-03T18:42:16;4.13;;;1.52;;
18905;SDS011;9585;51.018;4.282;2022-08-03T18:45:12;5.40;;;1.52;;
18905;SDS011;9585;51.018;4.282;2022-08-03T18:47:48;4.28;;;1.30;;
18905;SDS011;9585;51.018;4.282;2022-08-03T18:50:48;3.65;;;1.55;;
18905;SDS011;9585;51.018;4.282;2022-08-03T18:53:58;4.95;;;1.55;;